ADDS METAR Data INFO
IDs: Format: Raw Decoded Include TAF

Data at: 1937 UTC 19 Jul 2018

KBNW 191915Z AUTO 18009KT 140V200 9SM FEW027 SCT042 BKN050 26/22 A2974 RMK AO2
KBNW 191855Z AUTO 19009G17KT 150V210 9SM FEW019 BKN026 BKN038 27/23 A2975 RMK AO2
KBNW 191835Z AUTO 16010G16KT 10SM FEW016 BKN027 BKN034 26/22 A2975 RMK AO2
KBNW 191815Z AUTO 15007G17KT 130V190 10SM FEW015 SCT048 SCT055 26/22 A2975 RMK AO2
KBNW 191755Z AUTO 15013G19KT 9SM FEW014 25/21 A2976 RMK AO2
KBNW 191735Z AUTO 15011G16KT 10SM FEW013 24/21 A2977 RMK AO2
KBNW 191715Z AUTO 14011KT 10SM SCT013 BKN019 24/20 A2979 RMK AO2
KBNW 191655Z AUTO 15010G15KT 10SM BKN013 OVC020 22/19 A2980 RMK AO2
KBNW 191635Z AUTO 14009G16KT 10SM OVC012 21/19 A2980 RMK AO2
KBNW 191615Z AUTO 14010G17KT 9SM OVC011 20/18 A2981 RMK AO2
KBNW 191555Z AUTO 14011G16KT 9SM OVC010 20/18 A2982 RMK AO2
KBNW 191535Z AUTO 13014G22KT 9SM OVC010 20/18 A2982 RMK AO2
KBNW 191515Z AUTO 13017G22KT 9SM OVC009 20/18 A2982 RMK AO2
KBNW 191455Z AUTO 14014G20KT 9SM OVC009 20/18 A2983 RMK AO2
KBNW 191435Z AUTO 13013G19KT 9SM OVC009 20/18 A2983 RMK AO2
KBNW 191415Z AUTO 13015G21KT 9SM OVC008 20/19 A2983 RMK AO2
KBNW 191355Z AUTO 14011G17KT 110V170 8SM OVC007 20/19 A2983 RMK AO2
KBNW 191335Z AUTO 14011G18KT 9SM OVC007 20/19 A2984 RMK AO2
KBNW 191315Z AUTO 14011G18KT 9SM OVC007 20/19 A2984 RMK AO2
KBNW 191255Z AUTO 13011G19KT 8SM OVC007 20/19 A2985 RMK AO2
KBNW 191235Z AUTO 14012KT 110V170 8SM OVC007 20/19 A2987 RMK AO2
KBNW 191215Z AUTO 14010G17KT 8SM OVC008 19/19 A2986 RMK AO2
KBNW 191155Z AUTO 14010G18KT 8SM BKN009 BKN014 OVC024 20/19 A2986 RMK AO2
KBNW 191135Z AUTO 14012G19KT 8SM SCT010 OVC026 20/19 A2987 RMK AO2
KBNW 191115Z AUTO 14009G17KT 9SM BKN010 OVC028 20/19 A2987 RMK AO2
KBNW 191055Z AUTO 14012KT 8SM BKN010 OVC029 20/19 A2987 RMK AO2 P0005
KBNW 191035Z AUTO 14012KT 5SM BR FEW003 OVC011 21/19 A2988 RMK AO2
KBNW 191015Z AUTO 14010G17KT 10SM BKN011 OVC031 21/19 A2988 RMK AO2
KBNW 190955Z AUTO 13009G17KT 10SM BKN012 BKN034 OVC042 21/19 A2988 RMK AO2
KBNW 190935Z AUTO 14013G22KT 10SM FEW012 SCT033 OVC041 22/20 A2988 RMK AO2
KBNW 190915Z AUTO 14014G22KT 10SM OVC035 22/19 A2988 RMK AO2
KBNW 190855Z AUTO 15012G19KT 10SM OVC037 22/19 A2988 RMK AO2
KBNW 190835Z AUTO 14010KT 10SM BKN041 OVC055 22/20 A2989 RMK AO2
KBNW 190815Z AUTO 13011G17KT 10SM FEW045 OVC055 22/19 A2989 RMK AO2
KBNW 190755Z AUTO 14008KT 10SM SCT045 OVC055 23/19 A2990 RMK AO2
KBNW 190735Z AUTO 14008KT 10SM BKN048 OVC055 23/19 A2991 RMK AO2
KBNW 190715Z AUTO 15008KT 10SM BKN050 OVC060 23/19 A2992 RMK AO2
KBNW 190655Z AUTO 15008KT 10SM OVC050 23/19 A2992 RMK AO2
KBNW 190635Z AUTO 16006G11KT 10SM BKN050 OVC070 23/19 A2993 RMK AO2
KBNW 190615Z AUTO 15006KT 10SM FEW055 OVC065 22/19 A2992 RMK AO2
KBNW 190555Z AUTO 14007KT 10SM SCT055 BKN065 BKN100 22/19 A2993 RMK AO2
KBNW 190535Z AUTO 14008KT 10SM BKN065 BKN100 22/19 A2993 RMK AO2
KBNW 190515Z AUTO 14008G13KT 10SM SCT060 OVC095 23/19 A2994 RMK AO2
KBNW 190455Z AUTO 14010KT 10SM BKN060 OVC095 23/19 A2994 RMK AO2
KBNW 190435Z AUTO 14006KT 10SM BKN060 BKN090 OVC120 23/18 A2996 RMK AO2
KBNW 190415Z AUTO 14006KT 10SM FEW085 SCT120 23/18 A2996 RMK AO2
KBNW 190355Z AUTO 13007KT 10SM FEW090 23/18 A2995 RMK AO2
KBNW 190335Z AUTO 13006KT 10SM FEW090 23/18 A2996 RMK AO2
KBNW 190315Z AUTO 13008KT 10SM CLR 23/18 A2995 RMK AO2
KBNW 190255Z AUTO 13007KT 10SM SCT060 23/18 A2996 RMK AO2
KBNW 190235Z AUTO 13006KT 10SM OVC060 24/19 A2995 RMK AO2
KBNW 190215Z AUTO 13005KT 10SM BKN060 24/19 A2996 RMK AO2
KBNW 190155Z AUTO 13006KT 10SM FEW110 25/19 A2995 RMK AO2
KBNW 190135Z AUTO 12006KT 10SM FEW095 FEW120 25/19 A2996 RMK AO2
KBNW 190115Z AUTO 12006KT 10SM BKN095 BKN120 26/18 A2996 RMK AO2
KBNW 190055Z AUTO 13006KT 10SM SCT090 OVC120 26/18 A2996 RMK AO2
KBNW 190035Z AUTO 12006KT 10SM FEW065 BKN120 27/19 A2996 RMK AO2
KBNW 190015Z AUTO 12005KT 10SM BKN065 27/18 A2997 RMK AO2
KBNW 182355Z AUTO 12006KT 10SM BKN065 27/18 A2996 RMK AO2
KBNW 182335Z AUTO 5/96000006G11KT 10SM CLR 28/18 A2996 RMK AO2
KBNW 182315Z AUTO 12009KT 9SM FEW050 28/18 A2996 RMK AO2
KBNW 182255Z AUTO 12011KT 10SM FEW050 SCT070 28/17 A2997 RMK AO2
KBNW 182235Z AUTO 13008KT 10SM FEW050 SCT070 29/17 A2997 RMK AO2
KBNW 182215Z AUTO 13009KT 10SM FEW050 29/17 A2998 RMK AO2
KBNW 182155Z AUTO 13008KT 10SM CLR 29/17 A2999 RMK AO2
KBNW 182135Z AUTO 14008KT 10SM FEW055 FEW070 29/17 A2999 RMK AO2
KBNW 182115Z AUTO 14008G14KT 10SM CLR 29/17 A3000 RMK AO2
KBNW 182055Z AUTO 13010KT 10SM FEW060 29/18 A3000 RMK AO2
KBNW 182035Z AUTO 13009KT 10SM FEW050 SCT060 28/17 A3001 RMK AO2
KBNW 182015Z AUTO VRB06KT 10SM SCT050 BKN060 BKN070 29/17 A3002 RMK AO2
KBNW 181955Z AUTO 12009KT 9SM FEW049 BKN060 BKN065 29/18 A3002 RMK AO2
KBNW 181935Z AUTO 14006G14KT 10SM SCT048 BKN060 28/17 A3003 RMK AO2
KBNW 181915Z AUTO 14008KT 10SM SCT049 29/17 A3003 RMK AO2
KBNW 181855Z AUTO 16008G13KT 9SM FEW049 29/18 A3004 RMK AO2
KBNW 181835Z AUTO 14008KT 10SM FEW050 28/18 A3004 RMK AO2
KBNW 181815Z AUTO 14007G12KT 120V180 10SM FEW048 29/18 A3005 RMK AO2
KBNW 181755Z AUTO 16008KT 120V180 10SM CLR 29/18 A3006 RMK AO2
KBNW 181735Z AUTO 15006G12KT 9SM CLR 28/19 A3006 RMK AO2
KBNW 181715Z AUTO 15008KT 10SM CLR 27/19 A3006 RMK AO2
KBNW 181655Z AUTO 14006G11KT 10SM CLR 28/18 A3006 RMK AO2
KBNW 181635Z AUTO 13008KT 100V170 10SM CLR 27/18 A3006 RMK AO2
KBNW 181615Z AUTO 15007KT 10SM CLR 27/18 A3007 RMK AO2
KBNW 181555Z AUTO VRB05KT 10SM CLR 27/19 A3008 RMK AO2
KBNW 181535Z AUTO 15007KT 10SM CLR 27/19 A3008 RMK AO2
KBNW 181515Z AUTO VRB04KT 10SM CLR 26/19 A3008 RMK AO2
KBNW 181455Z AUTO 15005KT 10SM CLR 25/19 A3008 RMK AO2
KBNW 181435Z AUTO VRB03KT 9SM CLR 25/19 A3009 RMK AO2
KBNW 181415Z AUTO 00000KT 9SM CLR 24/19 A3010 RMK AO2
KBNW 181355Z AUTO 12003KT 10SM CLR 23/18 A3009 RMK AO2
KBNW 181335Z AUTO 11004KT 9SM CLR 22/18 A3009 RMK AO2
KBNW 181315Z AUTO 12004KT 9SM CLR 21/18 A3009 RMK AO2
KBNW 181255Z AUTO 09004KT 9SM CLR 20/18 A3010 RMK AO2
KBNW 181235Z AUTO 10005KT 7SM CLR 19/18 A3009 RMK AO2
KBNW 181215Z AUTO 00000KT 8SM CLR 19/17 A3010 RMK AO2
KBNW 181155Z AUTO 08003KT 9SM CLR 18/17 A3009 RMK AO2
KBNW 181135Z AUTO 10004KT 8SM CLR 18/16 A3009 RMK AO2
KBNW 181115Z AUTO 00000KT 9SM CLR 17/16 A3008 RMK AO2
KBNW 181055Z AUTO 00000KT 10SM CLR 17/16 A3008 RMK AO2
KBNW 181035Z AUTO 06004KT 10SM CLR 17/15 A3008 RMK AO2
KBNW 181015Z AUTO 08004KT 10SM CLR 17/16 A3008 RMK AO2
KBNW 180955Z AUTO 06003KT 10SM CLR 17/16 A3008 RMK AO2
KBNW 180935Z AUTO 00000KT 10SM CLR 17/16 A3009 RMK AO2
KBNW 180915Z AUTO 00000KT 10SM CLR 18/16 A3009 RMK AO2
KBNW 180855Z AUTO 00000KT 10SM CLR 18/16 A3009 RMK AO2
KBNW 180835Z AUTO 07003KT 10SM CLR 18/17 A3009 RMK AO2
KBNW 180815Z AUTO 00000KT 10SM CLR 18/16 A3009 RMK AO2
KBNW 180755Z AUTO 00000KT 10SM CLR 18/16 A3009 RMK AO2